Weather at Yorktown Power Station Heliport

Public forecast

Using degrees Fahrenheit for public forecast. Weather courtesy of forecast.io.

Closest aviation weather report (METAR) to Yorktown Power Station Heliport

Closest report is Newport News Williamsburg International Airport, 5.3 nm (9.8 km) SSW. Retrieved 2020/12/04 21:54 UTC (50 minutes ago):

KPHF 042154Z AUTO 00000KT 10SM BKN050 15/11 A3002 RMK AO2 SLP165 T01500106

Closest aviation forecast (TAF) to Yorktown Power Station Heliport

Closest forecast is Newport News Williamsburg International Airport, 5.3 nm (9.8 km) SSW. Retrieved 2020/12/04 18:27 UTC (4 hours ago):

TAF KPHF 041725Z 0418/0518 22013G18KT P6SM SKC FM042300 18006KT P6SM BKN050 FM050200 16006KT 6SM -RA OVC015 FM050500 17008G15KT 3SM RA BR OVC010 FM051000 29019G30KT 4SM RA BR OVC015 FM051500 31018G28KT P6SM SCT120